Terminal Aerodrome Forecast
Issued by NWS

Home | Current Version | Previous Version | Text Only | Print | Product List | Glossary On
Versions: 1 2 3 4 5 6 7 8 9 10 11 12 13 14 15 16 17 18 19 20 21
000
FTUS46 KLOX 201100 RRA
TAFSBP
TAF
KSBP 201148Z 2012/2112 VRB03KT P6SM SCT025 OVC050
      TEMPO 2012/2016 BKN025
     FM201900 31010KT P6SM SCT025 BKN035
     FM210900 VRB03KT P6SM SCT025=

USA.gov is the U.S. government's official web portal to all federal, state and local government web resources and services.